Accueil
METAR-TAF:

METAR-TAF

Aéroports :

Saint-Denis, Réunion

Aéroport de La Réunion Roland-Garros

latitude: 20-53S, longitude: 055-31E, altitude: 21 m

Observation

Le bulletin a été fait il y a 36 minutes, à 02:30 UTC
Vent 6 kt de sud-est
Température 21°C
Humidité 69%
Pression 1017 hPa
Visibilité 10 km ou plus
Quelques nuages à une hauteur de 3000 ft

METAR: FMEE 240230Z 13006KT 9999 FEW030 21/15 Q1017 NOSIG

Heure: 07:06 (03:06 UTC)

Prévision

Le bulletin a été fait il y a 4 heures et 6 minutes, à 23:00 UTC
Prévision valable du 24 à 00 UTC au 25 à 06 UTC
Vent 6 kt de sud-est
Visibilité 10 km ou plus
Nuages épars à une hauteur de 2300 ft, Cumulus congestus.
Evoluant progressivement
du 24 à 06 UTC au 24 à 09 UTC
Vent 16 kt de est
Nuages épars à une hauteur de 2600 ft

TAF: FMEE 232300Z 2400/2506 13006KT 9999 SCT023TCU BECMG 2406/2409 10016KT SCT026

Observations et prévisions météorologiques de plus de 4000 aéroports (messages METAR et TAF).

Les stations disponibles sont représentées par des disques jaunes et rouges sur la carte.

Passer la souris dessus pour voir le nom de la station.

Cliquer dessus pour voir les observations et prévisions météorologiques.

Pour changer de carte: cliquez sur les boutons verts avec une croix noire pour zoomer, sur le bouton vert avec un tiret pour effectuer un zoom arrière, ou sur les flèches vertes pour les cartes adjacentes.


METAR-TAF: